sensor_id;sensor_type;location;lat;lon;timestamp;pressure;altitude;pressure_sealevel;temperature;humidity
113;BME280;45999;48.808;9.182;2023-05-09T00:01:58;98370.56;;;13.92;100.00
113;BME280;45999;48.808;9.182;2023-05-09T00:04:24;98371.25;;;13.88;100.00
113;BME280;45999;48.808;9.182;2023-05-09T00:06:51;98364.75;;;13.84;100.00
113;BME280;45999;48.808;9.182;2023-05-09T00:09:17;98368.81;;;13.86;100.00
113;BME280;45999;48.808;9.182;2023-05-09T00:11:44;98367.31;;;13.90;100.00
113;BME280;45999;48.808;9.182;2023-05-09T00:14:10;98370.22;;;13.89;100.00
113;BME280;45999;48.808;9.182;2023-05-09T00:16:38;98362.19;;;13.89;100.00
113;BME280;45999;48.808;9.182;2023-05-09T00:19:05;98367.31;;;13.90;100.00
113;BME280;45999;48.808;9.182;2023-05-09T00:21:31;98367.88;;;13.92;100.00
113;BME280;45999;48.808;9.182;2023-05-09T00:23:58;98361.47;;;13.93;100.00
113;BME280;45999;48.808;9.182;2023-05-09T00:26:25;98357.19;;;13.92;100.00
113;BME280;45999;48.808;9.182;2023-05-09T00:28:52;98353.34;;;13.88;100.00
113;BME280;45999;48.808;9.182;2023-05-09T00:31:19;98351.38;;;13.84;100.00
113;BME280;45999;48.808;9.182;2023-05-09T00:33:45;98350.00;;;13.81;100.00
113;BME280;45999;48.808;9.182;2023-05-09T00:36:12;98344.88;;;13.80;100.00
113;BME280;45999;48.808;9.182;2023-05-09T00:38:38;98339.06;;;13.83;100.00
113;BME280;45999;48.808;9.182;2023-05-09T00:41:05;98332.91;;;13.82;100.00
113;BME280;45999;48.808;9.182;2023-05-09T00:43:32;98343.59;;;13.82;100.00
113;BME280;45999;48.808;9.182;2023-05-09T00:45:58;98343.94;;;13.86;100.00
113;BME280;45999;48.808;9.182;2023-05-09T00:48:25;98335.69;;;13.87;100.00
113;BME280;45999;48.808;9.182;2023-05-09T00:50:51;98333.25;;;13.86;100.00
113;BME280;45999;48.808;9.182;2023-05-09T00:53:19;98333.25;;;13.86;100.00
113;BME280;45999;48.808;9.182;2023-05-09T00:55:45;98327.34;;;13.84;100.00
113;BME280;45999;48.808;9.182;2023-05-09T00:58:12;98327.56;;;13.82;100.00
113;BME280;45999;48.808;9.182;2023-05-09T01:00:39;98329.28;;;13.77;100.00
113;BME280;45999;48.808;9.182;2023-05-09T01:03:05;98325.00;;;13.76;100.00
113;BME280;45999;48.808;9.182;2023-05-09T01:05:39;98322.00;;;13.72;100.00
113;BME280;45999;48.808;9.182;2023-05-09T01:11:09;98321.06;;;13.67;100.00
113;BME280;45999;48.808;9.182;2023-05-09T01:14:43;98320.72;;;13.63;100.00
113;BME280;45999;48.808;9.182;2023-05-09T01:16:46;98312.81;;;13.68;100.00
113;BME280;45999;48.808;9.182;2023-05-09T01:19:26;98312.22;;;13.66;100.00
113;BME280;45999;48.808;9.182;2023-05-09T01:21:57;98306.53;;;13.63;100.00
113;BME280;45999;48.808;9.182;2023-05-09T01:25:00;98314.75;;;13.61;100.00
113;BME280;45999;48.808;9.182;2023-05-09T01:27:52;98311.03;;;13.62;100.00
113;BME280;45999;48.808;9.182;2023-05-09T01:30:24;98310.47;;;13.60;100.00
113;BME280;45999;48.808;9.182;2023-05-09T01:32:53;98314.75;;;13.61;100.00
113;BME280;45999;48.808;9.182;2023-05-09T01:35:24;98311.31;;;13.61;100.00
113;BME280;45999;48.808;9.182;2023-05-09T01:37:52;98309.66;;;13.60;100.00
113;BME280;45999;48.808;9.182;2023-05-09T01:40:20;98311.41;;;13.54;100.00
113;BME280;45999;48.808;9.182;2023-05-09T01:43:01;98302.13;;;13.57;100.00
113;BME280;45999;48.808;9.182;2023-05-09T01:45:29;98302.81;;;13.52;100.00
113;BME280;45999;48.808;9.182;2023-05-09T01:47:57;98301.28;;;13.45;100.00
113;BME280;45999;48.808;9.182;2023-05-09T01:50:24;98294.09;;;13.45;100.00
113;BME280;45999;48.808;9.182;2023-05-09T01:52:54;98294.66;;;13.47;100.00
113;BME280;45999;48.808;9.182;2023-05-09T01:55:23;98297.81;;;13.44;100.00
113;BME280;45999;48.808;9.182;2023-05-09T01:57:52;98294.56;;;13.42;100.00
113;BME280;45999;48.808;9.182;2023-05-09T02:00:19;98295.72;;;13.35;100.00
113;BME280;45999;48.808;9.182;2023-05-09T02:02:47;98284.81;;;13.36;100.00
113;BME280;45999;48.808;9.182;2023-05-09T02:05:15;98291.75;;;13.37;100.00
113;BME280;45999;48.808;9.182;2023-05-09T02:07:44;98288.16;;;13.32;100.00
113;BME280;45999;48.808;9.182;2023-05-09T02:10:12;98288.53;;;13.35;100.00
113;BME280;45999;48.808;9.182;2023-05-09T02:12:40;98287.91;;;13.33;100.00
113;BME280;45999;48.808;9.182;2023-05-09T02:15:07;98295.47;;;13.36;100.00
113;BME280;45999;48.808;9.182;2023-05-09T02:17:33;98284.81;;;13.36;100.00
113;BME280;45999;48.808;9.182;2023-05-09T02:20:00;98294.44;;;13.37;100.00
113;BME280;45999;48.808;9.182;2023-05-09T02:22:26;98308.34;;;13.39;100.00
113;BME280;45999;48.808;9.182;2023-05-09T02:24:53;98298.72;;;13.38;100.00
113;BME280;45999;48.808;9.182;2023-05-09T02:27:20;98302.00;;;13.40;100.00
113;BME280;45999;48.808;9.182;2023-05-09T02:29:48;98303.38;;;13.43;100.00
113;BME280;45999;48.808;9.182;2023-05-09T02:32:20;98302.34;;;13.44;100.00
113;BME280;45999;48.808;9.182;2023-05-09T02:34:48;98298.84;;;13.43;100.00
113;BME280;45999;48.808;9.182;2023-05-09T02:37:17;98294.78;;;13.41;100.00
113;BME280;45999;48.808;9.182;2023-05-09T02:39:44;98294.56;;;13.42;100.00
113;BME280;45999;48.808;9.182;2023-05-09T02:42:12;98295.47;;;13.36;100.00
113;BME280;45999;48.808;9.182;2023-05-09T02:44:39;98283.75;;;13.37;100.00
113;BME280;45999;48.808;9.182;2023-05-09T02:47:06;98285.03;;;13.35;100.00
113;BME280;45999;48.808;9.182;2023-05-09T02:49:33;98282.00;;;13.31;100.00
113;BME280;45999;48.808;9.182;2023-05-09T02:52:00;98274.44;;;13.28;100.00
113;BME280;45999;48.808;9.182;2023-05-09T02:54:26;98281.63;;;13.28;100.00
113;BME280;45999;48.808;9.182;2023-05-09T02:56:53;98274.09;;;13.25;100.00
113;BME280;45999;48.808;9.182;2023-05-09T02:59:19;98269.00;;;13.23;100.00
113;BME280;45999;48.808;9.182;2023-05-09T03:01:46;98273.41;;;13.29;100.00
113;BME280;45999;48.808;9.182;2023-05-09T03:04:12;98267.28;;;13.29;100.00
113;BME280;45999;48.808;9.182;2023-05-09T03:06:38;98259.00;;;13.19;100.00
113;BME280;45999;48.808;9.182;2023-05-09T03:09:05;98257.25;;;13.24;100.00
113;BME280;45999;48.808;9.182;2023-05-09T03:11:32;98261.22;;;13.22;100.00
113;BME280;45999;48.808;9.182;2023-05-09T03:14:00;98264.34;;;13.19;100.00
113;BME280;45999;48.808;9.182;2023-05-09T03:16:27;98260.25;;;13.16;100.00
113;BME280;45999;48.808;9.182;2023-05-09T03:18:53;98261.91;;;13.17;100.00
113;BME280;45999;48.808;9.182;2023-05-09T03:21:19;98249.03;;;13.14;100.00
113;BME280;45999;48.808;9.182;2023-05-09T03:23:46;98257.47;;;13.11;100.00
113;BME280;45999;48.808;9.182;2023-05-09T03:26:12;98261.19;;;13.10;100.00
113;BME280;45999;48.808;9.182;2023-05-09T03:28:39;98251.78;;;13.08;100.00
113;BME280;45999;48.808;9.182;2023-05-09T03:31:05;98250.16;;;13.07;100.00
113;BME280;45999;48.808;9.182;2023-05-09T03:33:32;98250.41;;;13.05;100.00
113;BME280;45999;48.808;9.182;2023-05-09T03:35:58;98233.94;;;13.08;100.00
113;BME280;45999;48.808;9.182;2023-05-09T03:38:24;98242.16;;;13.07;100.00
113;BME280;45999;48.808;9.182;2023-05-09T03:40:52;98240.28;;;13.07;100.00
113;BME280;45999;48.808;9.182;2023-05-09T03:43:19;98242.16;;;13.07;100.00
113;BME280;45999;48.808;9.182;2023-05-09T03:45:45;98244.84;;;13.07;100.00
113;BME280;45999;48.808;9.182;2023-05-09T03:48:12;98238.78;;;13.11;100.00
113;BME280;45999;48.808;9.182;2023-05-09T03:50:38;98237.88;;;13.06;100.00
113;BME280;45999;48.808;9.182;2023-05-09T03:53:05;98246.44;;;13.08;100.00
113;BME280;45999;48.808;9.182;2023-05-09T03:55:31;98244.22;;;13.05;100.00
113;BME280;45999;48.808;9.182;2023-05-09T03:57:57;98234.84;;;13.02;100.00
113;BME280;45999;48.808;9.182;2023-05-09T04:00:24;98242.72;;;13.09;100.00
113;BME280;45999;48.808;9.182;2023-05-09T04:02:51;98236.59;;;13.08;100.00
113;BME280;45999;48.808;9.182;2023-05-09T04:05:18;98239.13;;;13.03;100.00
113;BME280;45999;48.808;9.182;2023-05-09T04:07:45;98239.28;;;13.08;100.00
113;BME280;45999;48.808;9.182;2023-05-09T04:10:11;98235.31;;;13.11;100.00
113;BME280;45999;48.808;9.182;2023-05-09T04:12:37;98234.50;;;13.10;100.00
113;BME280;45999;48.808;9.182;2023-05-09T04:15:05;98236.34;;;13.10;100.00
113;BME280;45999;48.808;9.182;2023-05-09T04:17:31;98234.50;;;13.10;100.00
113;BME280;45999;48.808;9.182;2023-05-09T04:19:58;98234.28;;;13.12;100.00
113;BME280;45999;48.808;9.182;2023-05-09T04:22:24;98237.16;;;13.10;100.00
113;BME280;45999;48.808;9.182;2023-05-09T04:24:50;98236.81;;;13.07;100.00
113;BME280;45999;48.808;9.182;2023-05-09T04:27:17;98235.66;;;13.14;100.00
113;BME280;45999;48.808;9.182;2023-05-09T04:29:43;98236.00;;;13.18;100.00
113;BME280;45999;48.808;9.182;2023-05-09T04:32:09;98239.03;;;13.21;100.00
113;BME280;45999;48.808;9.182;2023-05-09T04:34:36;98239.84;;;13.22;100.00
113;BME280;45999;48.808;9.182;2023-05-09T04:37:02;98236.34;;;13.21;100.00
113;BME280;45999;48.808;9.182;2023-05-09T04:39:29;98248.81;;;13.27;100.00
113;BME280;45999;48.808;9.182;2023-05-09T04:41:55;98247.97;;;13.27;100.00
113;BME280;45999;48.808;9.182;2023-05-09T04:44:22;98247.75;;;13.28;100.00
113;BME280;45999;48.808;9.182;2023-05-09T04:46:49;98245.66;;;13.30;100.00
113;BME280;45999;48.808;9.182;2023-05-09T04:49:15;98248.31;;;13.30;100.00
113;BME280;45999;48.808;9.182;2023-05-09T04:51:42;98249.38;;;13.29;100.00
113;BME280;45999;48.808;9.182;2023-05-09T04:54:08;98261.34;;;13.38;100.00
113;BME280;45999;48.808;9.182;2023-05-09T04:56:34;98258.00;;;13.43;100.00
113;BME280;45999;48.808;9.182;2023-05-09T04:59:00;98256.00;;;13.38;100.00
113;BME280;45999;48.808;9.182;2023-05-09T05:01:27;98254.38;;;13.37;100.00
113;BME280;45999;48.808;9.182;2023-05-09T05:03:54;98244.88;;;13.41;100.00
113;BME280;45999;48.808;9.182;2023-05-09T05:06:20;98253.94;;;13.40;100.00
113;BME280;45999;48.808;9.182;2023-05-09T05:08:46;98251.38;;;13.45;100.00
113;BME280;45999;48.808;9.182;2023-05-09T05:11:13;98235.13;;;13.47;100.00
113;BME280;45999;48.808;9.182;2023-05-09T05:13:39;98238.59;;;13.47;100.00
113;BME280;45999;48.808;9.182;2023-05-09T05:16:05;98241.03;;;13.49;100.00
113;BME280;45999;48.808;9.182;2023-05-09T05:18:32;98246.13;;;13.50;100.00
113;BME280;45999;48.808;9.182;2023-05-09T05:20:58;98245.91;;;13.52;100.00
113;BME280;45999;48.808;9.182;2023-05-09T05:23:24;98236.72;;;13.59;100.00
113;BME280;45999;48.808;9.182;2023-05-09T05:25:51;98242.06;;;13.59;100.00
113;BME280;45999;48.808;9.182;2023-05-09T05:28:18;98242.63;;;13.61;100.00
113;BME280;45999;48.808;9.182;2023-05-09T05:30:44;98238.25;;;13.55;100.00
113;BME280;45999;48.808;9.182;2023-05-09T05:33:11;98244.75;;;13.59;100.00
113;BME280;45999;48.808;9.182;2023-05-09T05:35:37;98236.50;;;13.61;100.00
113;BME280;45999;48.808;9.182;2023-05-09T05:38:03;98232.06;;;13.66;100.00
113;BME280;45999;48.808;9.182;2023-05-09T05:40:30;98237.28;;;13.73;100.00
113;BME280;45999;48.808;9.182;2023-05-09T05:42:56;98229.03;;;13.74;100.00
113;BME280;45999;48.808;9.182;2023-05-09T05:45:23;98237.78;;;13.70;100.00
113;BME280;45999;48.808;9.182;2023-05-09T05:47:49;98231.38;;;13.71;100.00
113;BME280;45999;48.808;9.182;2023-05-09T05:50:15;98231.38;;;13.71;100.00
113;BME280;45999;48.808;9.182;2023-05-09T05:52:42;98232.75;;;13.73;100.00
113;BME280;45999;48.808;9.182;2023-05-09T05:55:08;98226.97;;;13.76;100.00
113;BME280;45999;48.808;9.182;2023-05-09T05:57:35;98228.09;;;13.80;100.00
113;BME280;45999;48.808;9.182;2023-05-09T06:00:01;98225.19;;;13.82;100.00
113;BME280;45999;48.808;9.182;2023-05-09T06:02:30;98227.03;;;13.93;100.00
113;BME280;45999;48.808;9.182;2023-05-09T06:04:56;98221.22;;;13.96;100.00
113;BME280;45999;48.808;9.182;2023-05-09T06:07:23;98227.69;;;14.11;100.00
113;BME280;45999;48.808;9.182;2023-05-09T06:09:49;98222.69;;;14.26;100.00
113;BME280;45999;48.808;9.182;2023-05-09T06:12:15;98212.91;;;14.48;100.00
113;BME280;45999;48.808;9.182;2023-05-09T06:14:42;98208.03;;;14.73;100.00
113;BME280;45999;48.808;9.182;2023-05-09T06:17:08;98214.63;;;14.99;100.00
113;BME280;45999;48.808;9.182;2023-05-09T06:19:35;98204.72;;;14.99;100.00
113;BME280;45999;48.808;9.182;2023-05-09T06:22:02;98204.16;;;14.97;100.00
113;BME280;45999;48.808;9.182;2023-05-09T06:24:28;98206.09;;;15.18;100.00
113;BME280;45999;48.808;9.182;2023-05-09T06:26:54;98206.44;;;15.05;100.00
113;BME280;45999;48.808;9.182;2023-05-09T06:29:21;98201.47;;;15.14;100.00
113;BME280;45999;48.808;9.182;2023-05-09T06:31:47;98205.03;;;15.19;100.00
113;BME280;45999;48.808;9.182;2023-05-09T06:34:14;98200.44;;;15.15;100.00
113;BME280;45999;48.808;9.182;2023-05-09T06:36:40;98205.63;;;15.21;100.00
113;BME280;45999;48.808;9.182;2023-05-09T06:39:06;98205.44;;;15.11;100.00
113;BME280;45999;48.808;9.182;2023-05-09T06:41:33;98196.09;;;15.14;100.00
113;BME280;45999;48.808;9.182;2023-05-09T06:43:59;98196.03;;;15.09;100.00
113;BME280;45999;48.808;9.182;2023-05-09T06:46:26;98193.94;;;14.94;100.00
113;BME280;45999;48.808;9.182;2023-05-09T06:48:53;98194.50;;;14.96;100.00
113;BME280;45999;48.808;9.182;2023-05-09T06:51:19;98193.94;;;14.94;100.00
113;BME280;45999;48.808;9.182;2023-05-09T06:53:46;98191.66;;;15.03;100.00
113;BME280;45999;48.808;9.182;2023-05-09T06:56:12;98183.63;;;15.03;100.00
113;BME280;45999;48.808;9.182;2023-05-09T06:58:38;98182.06;;;15.23;100.00
113;BME280;45999;48.808;9.182;2023-05-09T07:01:05;98187.25;;;15.30;100.00
113;BME280;45999;48.808;9.182;2023-05-09T07:03:31;98182.72;;;15.30;100.00
113;BME280;45999;48.808;9.182;2023-05-09T07:05:57;98178.91;;;15.43;100.00
113;BME280;45999;48.808;9.182;2023-05-09T07:08:24;98175.06;;;15.55;100.00
113;BME280;45999;48.808;9.182;2023-05-09T07:10:51;98177.25;;;15.58;100.00
113;BME280;45999;48.808;9.182;2023-05-09T07:13:17;98169.28;;;15.63;100.00
113;BME280;45999;48.808;9.182;2023-05-09T07:15:43;98171.47;;;15.66;100.00
113;BME280;45999;48.808;9.182;2023-05-09T07:18:10;98170.00;;;15.59;100.00
113;BME280;45999;48.808;9.182;2023-05-09T07:20:36;98168.88;;;15.71;100.00
113;BME280;45999;48.808;9.182;2023-05-09T07:23:03;98167.91;;;15.61;100.00
113;BME280;45999;48.808;9.182;2023-05-09T07:25:30;98159.44;;;15.69;100.00
113;BME280;45999;48.808;9.182;2023-05-09T07:27:57;98168.34;;;15.74;100.00
113;BME280;45999;48.808;9.182;2023-05-09T07:30:23;98141.91;;;16.04;100.00
113;BME280;45999;48.808;9.182;2023-05-09T07:32:50;98136.41;;;16.16;100.00
113;BME280;45999;48.808;9.182;2023-05-09T07:35:17;98138.41;;;16.25;100.00
113;BME280;45999;48.808;9.182;2023-05-09T07:37:43;98130.06;;;16.48;100.00
113;BME280;45999;48.808;9.182;2023-05-09T07:40:10;98128.38;;;16.69;100.00
113;BME280;45999;48.808;9.182;2023-05-09T07:42:37;98128.25;;;16.59;100.00
113;BME280;45999;48.808;9.182;2023-05-09T07:45:04;98125.72;;;16.74;100.00
113;BME280;45999;48.808;9.182;2023-05-09T07:47:31;98120.56;;;16.67;100.00
113;BME280;45999;48.808;9.182;2023-05-09T07:49:58;98114.63;;;16.65;100.00
113;BME280;45999;48.808;9.182;2023-05-09T07:52:25;98111.47;;;16.73;100.00
113;BME280;45999;48.808;9.182;2023-05-09T07:54:51;98113.06;;;16.69;100.00
113;BME280;45999;48.808;9.182;2023-05-09T07:57:18;98109.91;;;16.77;100.00
113;BME280;45999;48.808;9.182;2023-05-09T07:59:44;98114.44;;;16.77;100.00
113;BME280;45999;48.808;9.182;2023-05-09T08:02:11;98109.91;;;16.77;100.00
113;BME280;45999;48.808;9.182;2023-05-09T08:04:37;98101.28;;;17.12;100.00
113;BME280;45999;48.808;9.182;2023-05-09T08:07:05;98092.44;;;17.11;100.00
113;BME280;45999;48.808;9.182;2023-05-09T08:09:33;98086.09;;;17.32;100.00
113;BME280;45999;48.808;9.182;2023-05-09T08:11:59;98083.41;;;17.32;100.00
113;BME280;45999;48.808;9.182;2023-05-09T08:14:25;98081.81;;;17.36;100.00
113;BME280;45999;48.808;9.182;2023-05-09T08:16:52;98073.69;;;17.21;100.00
113;BME280;45999;48.808;9.182;2023-05-09T08:19:18;98072.53;;;17.07;100.00
113;BME280;45999;48.808;9.182;2023-05-09T08:21:45;98073.66;;;17.16;100.00
113;BME280;45999;48.808;9.182;2023-05-09T08:24:11;98072.63;;;17.27;100.00
113;BME280;45999;48.808;9.182;2023-05-09T08:26:37;98066.50;;;17.32;100.00
113;BME280;45999;48.808;9.182;2023-05-09T08:29:04;98060.00;;;17.28;100.00
113;BME280;45999;48.808;9.182;2023-05-09T08:31:31;98051.81;;;17.54;100.00
113;BME280;45999;48.808;9.182;2023-05-09T08:33:57;98045.69;;;17.64;100.00
113;BME280;45999;48.808;9.182;2023-05-09T08:36:23;98045.69;;;17.64;100.00
113;BME280;45999;48.808;9.182;2023-05-09T08:38:50;98043.81;;;17.69;100.00
113;BME280;45999;48.808;9.182;2023-05-09T08:41:17;98032.03;;;17.90;100.00
113;BME280;45999;48.808;9.182;2023-05-09T08:43:45;98025.31;;;17.93;100.00
113;BME280;45999;48.808;9.182;2023-05-09T08:46:13;98026.66;;;17.95;100.00
113;BME280;45999;48.808;9.182;2023-05-09T08:48:41;98021.28;;;17.95;100.00
113;BME280;45999;48.808;9.182;2023-05-09T08:51:09;98025.06;;;18.14;100.00
113;BME280;45999;48.808;9.182;2023-05-09T08:53:36;98029.41;;;18.30;100.00
113;BME280;45999;48.808;9.182;2023-05-09T08:56:02;98029.66;;;18.29;100.00
113;BME280;45999;48.808;9.182;2023-05-09T08:58:30;98027.00;;;18.44;100.00
113;BME280;45999;48.808;9.182;2023-05-09T09:00:57;98039.13;;;18.41;100.00
113;BME280;45999;48.808;9.182;2023-05-09T09:03:24;98026.19;;;18.53;100.00
113;BME280;45999;48.808;9.182;2023-05-09T09:05:51;98034.22;;;18.28;100.00
113;BME280;45999;48.808;9.182;2023-05-09T09:08:24;98028.84;;;18.18;100.00
113;BME280;45999;48.808;9.182;2023-05-09T09:10:51;98033.16;;;18.19;100.00
113;BME280;45999;48.808;9.182;2023-05-09T09:13:19;98019.69;;;17.94;100.00
113;BME280;45999;48.808;9.182;2023-05-09T09:15:47;98017.75;;;17.85;100.00
113;BME280;45999;48.808;9.182;2023-05-09T09:18:22;98018.00;;;17.78;100.00
113;BME280;45999;48.808;9.182;2023-05-09T09:20:52;98014.81;;;17.86;100.00
113;BME280;45999;48.808;9.182;2023-05-09T09:23:23;98007.00;;;17.90;100.00
113;BME280;45999;48.808;9.182;2023-05-09T09:26:02;98007.03;;;17.95;100.00
113;BME280;45999;48.808;9.182;2023-05-09T09:28:29;98000.84;;;17.84;100.00
113;BME280;45999;48.808;9.182;2023-05-09T09:30:56;98001.88;;;17.78;100.00
113;BME280;45999;48.808;9.182;2023-05-09T09:33:23;97994.69;;;18.19;100.00
113;BME280;45999;48.808;9.182;2023-05-09T09:35:53;97994.97;;;18.52;100.00
113;BME280;45999;48.808;9.182;2023-05-09T09:38:20;97980.38;;;18.78;100.00
113;BME280;45999;48.808;9.182;2023-05-09T09:40:51;97985.78;;;18.73;100.00
113;BME280;45999;48.808;9.182;2023-05-09T09:43:18;97980.88;;;19.00;100.00
113;BME280;45999;48.808;9.182;2023-05-09T09:45:48;97974.09;;;19.23;100.00
113;BME280;45999;48.808;9.182;2023-05-09T09:48:15;97969.47;;;19.33;100.00
113;BME280;45999;48.808;9.182;2023-05-09T09:50:41;97969.69;;;19.42;100.00
113;BME280;45999;48.808;9.182;2023-05-09T09:53:08;97956.63;;;19.64;100.00
113;BME280;45999;48.808;9.182;2023-05-09T09:55:34;97958.94;;;19.81;100.00
113;BME280;45999;48.808;9.182;2023-05-09T09:58:01;97952.09;;;19.93;98.34
113;BME280;45999;48.808;9.182;2023-05-09T10:00:27;97939.19;;;20.24;95.06
113;BME280;45999;48.808;9.182;2023-05-09T10:02:56;97935.59;;;20.00;96.61
113;BME280;45999;48.808;9.182;2023-05-09T10:05:27;97935.22;;;19.77;99.03
113;BME280;45999;48.808;9.182;2023-05-09T10:07:58;97932.00;;;19.76;95.38
113;BME280;45999;48.808;9.182;2023-05-09T10:10:33;97936.53;;;19.80;95.26
113;BME280;45999;48.808;9.182;2023-05-09T10:13:10;97922.44;;;19.93;95.37
113;BME280;45999;48.808;9.182;2023-05-09T10:15:37;97914.97;;;19.80;97.53
113;BME280;45999;48.808;9.182;2023-05-09T10:18:03;97919.88;;;19.73;94.46
113;BME280;45999;48.808;9.182;2023-05-09T10:20:33;97916.50;;;19.91;93.55
113;BME280;45999;48.808;9.182;2023-05-09T10:23:03;97912.44;;;19.94;94.18
113;BME280;45999;48.808;9.182;2023-05-09T10:25:39;97900.06;;;19.93;94.60
113;BME280;45999;48.808;9.182;2023-05-09T10:28:13;97901.56;;;19.70;96.31
113;BME280;45999;48.808;9.182;2023-05-09T10:30:56;97892.81;;;19.83;97.81
113;BME280;45999;48.808;9.182;2023-05-09T10:33:37;97892.41;;;19.66;98.23
113;BME280;45999;48.808;9.182;2023-05-09T10:36:07;97887.19;;;19.41;100.00
113;BME280;45999;48.808;9.182;2023-05-09T10:38:34;97888.97;;;19.55;100.00
113;BME280;45999;48.808;9.182;2023-05-09T10:41:02;97885.22;;;19.57;100.00
113;BME280;45999;48.808;9.182;2023-05-09T10:43:32;97870.38;;;19.88;92.77
113;BME280;45999;48.808;9.182;2023-05-09T10:46:01;97869.00;;;19.95;92.56
113;BME280;45999;48.808;9.182;2023-05-09T10:48:29;97870.84;;;20.00;95.75
113;BME280;45999;48.808;9.182;2023-05-09T10:50:57;97869.44;;;20.36;89.43
113;BME280;45999;48.808;9.182;2023-05-09T10:53:39;97865.34;;;19.76;91.91
113;BME280;45999;48.808;9.182;2023-05-09T10:56:07;97861.09;;;20.04;94.95
113;BME280;45999;48.808;9.182;2023-05-09T10:58:34;97854.81;;;19.80;90.95
113;BME280;45999;48.808;9.182;2023-05-09T11:01:03;97859.41;;;19.79;91.93
113;BME280;45999;48.808;9.182;2023-05-09T11:03:55;97845.25;;;20.26;93.64
113;BME280;45999;48.808;9.182;2023-05-09T11:11:51;97824.09;;;20.80;92.33
113;BME280;45999;48.808;9.182;2023-05-09T11:14:31;97820.59;;;20.79;88.33
113;BME280;45999;48.808;9.182;2023-05-09T11:17:01;97813.19;;;20.66;93.63
113;BME280;45999;48.808;9.182;2023-05-09T11:22:19;97805.59;;;20.92;89.76
113;BME280;45999;48.808;9.182;2023-05-09T11:24:50;97803.44;;;20.89;88.05
113;BME280;45999;48.808;9.182;2023-05-09T11:27:19;97808.38;;;21.05;87.62
113;BME280;45999;48.808;9.182;2023-05-09T11:29:54;97796.69;;;21.10;86.60
113;BME280;45999;48.808;9.182;2023-05-09T11:32:26;97789.47;;;20.82;86.78
113;BME280;45999;48.808;9.182;2023-05-09T11:35:08;97778.03;;;20.90;92.07
113;BME280;45999;48.808;9.182;2023-05-09T11:38:05;97777.19;;;21.13;86.82
113;BME280;45999;48.808;9.182;2023-05-09T11:40:33;97774.25;;;21.28;87.77
113;BME280;45999;48.808;9.182;2023-05-09T11:43:00;97765.19;;;21.37;87.34
113;BME280;45999;48.808;9.182;2023-05-09T11:45:30;97769.06;;;21.31;85.85
113;BME280;45999;48.808;9.182;2023-05-09T11:47:58;97761.94;;;21.54;84.72
113;BME280;45999;48.808;9.182;2023-05-09T11:50:25;97766.59;;;21.67;78.54
113;BME280;45999;48.808;9.182;2023-05-09T11:52:52;97755.13;;;21.75;77.90
113;BME280;45999;48.808;9.182;2023-05-09T11:55:20;97754.47;;;21.64;78.77
113;BME280;45999;48.808;9.182;2023-05-09T11:57:51;97750.19;;;21.45;80.14
113;BME280;45999;48.808;9.182;2023-05-09T12:00:23;97739.91;;;21.10;82.59
113;BME280;45999;48.808;9.182;2023-05-09T12:02:50;97744.75;;;21.13;81.80
113;BME280;45999;48.808;9.182;2023-05-09T12:05:20;97742.78;;;21.00;81.52
113;BME280;45999;48.808;9.182;2023-05-09T12:07:47;97732.03;;;20.95;81.58
113;BME280;45999;48.808;9.182;2023-05-09T12:10:15;97717.13;;;20.97;83.09
113;BME280;45999;48.808;9.182;2023-05-09T12:12:44;97721.88;;;21.05;83.69
113;BME280;45999;48.808;9.182;2023-05-09T12:15:11;97723.13;;;20.94;84.11
113;BME280;45999;48.808;9.182;2023-05-09T12:17:39;97715.75;;;21.18;82.17
113;BME280;45999;48.808;9.182;2023-05-09T12:20:07;97716.88;;;21.31;80.33
113;BME280;45999;48.808;9.182;2023-05-09T12:22:34;97710.03;;;21.20;79.39
113;BME280;45999;48.808;9.182;2023-05-09T12:25:04;97712.06;;;21.28;80.45
113;BME280;45999;48.808;9.182;2023-05-09T12:27:32;97696.34;;;21.30;81.16
113;BME280;45999;48.808;9.182;2023-05-09T12:30:03;97700.94;;;21.29;80.84
113;BME280;45999;48.808;9.182;2023-05-09T12:32:33;97693.94;;;21.28;83.31
113;BME280;45999;48.808;9.182;2023-05-09T12:35:00;97694.94;;;21.00;81.58
113;BME280;45999;48.808;9.182;2023-05-09T12:37:29;97682.63;;;20.89;83.34
113;BME280;45999;48.808;9.182;2023-05-09T12:42:33;97678.69;;;21.19;84.97
113;BME280;45999;48.808;9.182;2023-05-09T12:45:01;97672.59;;;20.95;83.79
113;BME280;45999;48.808;9.182;2023-05-09T12:47:29;97675.56;;;21.12;82.75
113;BME280;45999;48.808;9.182;2023-05-09T12:50:00;97667.44;;;21.12;83.75
113;BME280;45999;48.808;9.182;2023-05-09T12:52:39;97668.25;;;21.12;83.29
113;BME280;45999;48.808;9.182;2023-05-09T12:55:11;97652.25;;;21.16;81.22
113;BME280;45999;48.808;9.182;2023-05-09T12:57:38;97653.03;;;21.16;82.76
113;BME280;45999;48.808;9.182;2023-05-09T13:00:08;97642.75;;;21.32;82.98
113;BME280;45999;48.808;9.182;2023-05-09T13:02:37;97637.69;;;21.44;80.56
113;BME280;45999;48.808;9.182;2023-05-09T13:05:06;97639.34;;;21.26;82.86
113;BME280;45999;48.808;9.182;2023-05-09T13:07:45;97633.91;;;21.13;80.47
113;BME280;45999;48.808;9.182;2023-05-09T13:10:12;97637.38;;;21.00;80.03
113;BME280;45999;48.808;9.182;2023-05-09T13:12:40;97632.88;;;20.95;80.83
113;BME280;45999;48.808;9.182;2023-05-09T13:15:10;97631.22;;;21.13;81.06
113;BME280;45999;48.808;9.182;2023-05-09T13:17:37;97628.69;;;21.03;79.54
113;BME280;45999;48.808;9.182;2023-05-09T13:20:03;97618.19;;;21.15;77.24
113;BME280;45999;48.808;9.182;2023-05-09T13:22:31;97607.47;;;21.10;79.07
113;BME280;45999;48.808;9.182;2023-05-09T13:24:57;97602.97;;;21.05;73.37
113;BME280;45999;48.808;9.182;2023-05-09T13:27:24;97600.78;;;20.89;79.27
113;BME280;45999;48.808;9.182;2023-05-09T13:29:52;97606.28;;;20.84;80.26
113;BME280;45999;48.808;9.182;2023-05-09T13:32:18;97590.16;;;20.79;78.90